Time;durP1;ratioP1;P1;durP2;ratioP2;P2;SDS_P1;SDS_P2;PMS_P1;PMS_P2;Temp;Humidity;BMP_temperature;BMP_pressure;BME280_temperature;BME280_humidity;BME280_pressure;Samples;Min_cycle;Max_cycle;Signal;HPM_P1;HPM_P2
2022/05/15 00:01:34;;;;;;;;;;;;;;;13.74;nan;99652.25;4992920;28;20054;-72
2022/05/15 00:04:00;;;;;;;;;;;;;;;13.81;nan;99645.56;4997810;28;20091;-72
2022/05/15 00:06:25;;;;;;;;;;;;;;;13.84;nan;99640.03;4994046;28;19980;-71
2022/05/15 00:08:51;;;;;;;;;;;;;;;13.87;nan;99645.06;4996801;28;20609;-73
2022/05/15 00:11:17;;;;;;;;;;;;;;;13.90;nan;99636.09;4990926;28;20605;-75
2022/05/15 00:13:42;;;;;;;;;;;;;;;13.94;nan;99632.25;4986697;28;19984;-75
2022/05/15 00:16:08;;;;;;;;;;;;;;;14.00;nan;99620.38;4988854;28;19964;-75
2022/05/15 00:18:33;;;;;;;;;;;;;;;14.01;nan;99628.16;4995433;28;19992;-75
2022/05/15 00:20:59;;;;;;;;;;;;;;;13.99;nan;99630.09;4994356;28;19964;-75
2022/05/15 00:23:25;;;;;;;;;;;;;;;13.90;nan;99613.16;4997569;28;19980;-75
2022/05/15 00:25:51;;;;;;;;;;;;;;;13.87;nan;99615.19;4994054;28;20018;-75
2022/05/15 00:28:16;;;;;;;;;;;;;;;13.86;nan;99617.00;4991282;28;19968;-75
2022/05/15 00:30:41;;;;;;;;;;;;;;;13.85;nan;99623.25;4992056;28;20360;-75
2022/05/15 00:33:07;;;;;;;;;;;;;;;13.84;nan;99618.91;4994693;28;19991;-75
2022/05/15 00:35:35;;;;;;;;;;;;;;;13.86;nan;99624.09;4994867;28;20075;-76
2022/05/15 00:38:01;;;;;;;;;;;;;;;13.87;nan;99615.19;5011482;28;19987;-75
2022/05/15 00:40:27;;;;;;;;;;;;;;;13.83;nan;99614.59;4991731;28;19965;-75
2022/05/15 00:42:52;;;;;;;;;;;;;;;13.76;nan;99612.53;4997037;28;19984;-75
2022/05/15 00:45:18;;;;;;;;;;;;;;;13.75;nan;99617.00;4997804;28;20491;-76
2022/05/15 00:47:43;;;;;;;;;;;;;;;13.76;nan;99615.19;4990061;28;19968;-76
2022/05/15 00:50:11;;;;;;;;;;;;;;;13.75;nan;99617.00;4990674;28;20407;-75
2022/05/15 00:52:38;;;;;;;;;;;;;;;13.68;nan;99621.06;4991958;28;19964;-76
2022/05/15 00:55:09;;;;;;;;;;;;;;;13.63;nan;99623.19;4998750;28;20416;-76
2022/05/15 00:57:37;;;;;;;;;;;;;;;13.53;nan;99619.56;5010599;28;19992;-76
2022/05/15 01:00:13;;;;;;;;;;;;;;;13.46;nan;99614.75;4993434;28;19964;-76
2022/05/15 01:02:48;;;;;;;;;;;;;;;13.38;nan;99618.94;4997169;28;20318;-76
2022/05/15 01:05:14;;;;;;;;;;;;;;;13.26;nan;99618.91;4994191;28;19971;-76
2022/05/15 01:07:39;;;;;;;;;;;;;;;13.22;nan;99619.22;5012065;28;20199;-75
2022/05/15 01:10:07;;;;;;;;;;;;;;;13.17;nan;99616.06;5005737;28;19972;-77
2022/05/15 01:12:35;;;;;;;;;;;;;;;13.11;nan;99612.09;4989194;28;20333;-75
2022/05/15 01:15:00;;;;;;;;;;;;;;;13.11;nan;99613.91;4991162;28;19968;-76
2022/05/15 01:17:28;;;;;;;;;;;;;;;13.12;nan;99616.41;4993482;28;19984;-76
2022/05/15 01:20:00;;;;;;;;;;;;;;;13.12;nan;99615.56;4989842;28;19971;-76
2022/05/15 01:22:25;;;;;;;;;;;;;;;13.14;nan;99618.94;4993101;28;20324;-76
2022/05/15 01:24:51;;;;;;;;;;;;;;;13.20;nan;99615.84;5009922;28;20004;-77
2022/05/15 01:27:16;;;;;;;;;;;;;;;13.22;nan;99620.03;5008197;28;19969;-76
2022/05/15 01:29:46;;;;;;;;;;;;;;;13.22;nan;99621.84;4992156;28;19968;-76
2022/05/15 01:32:13;;;;;;;;;;;;;;;13.19;nan;99615.00;5013408;28;19964;-75
2022/05/15 01:34:40;;;;;;;;;;;;;;;13.21;nan;99621.00;4992437;28;19987;-76
2022/05/15 01:37:07;;;;;;;;;;;;;;;13.24;nan;99623.41;4996682;28;19968;-75
2022/05/15 01:39:33;;;;;;;;;;;;;;;13.25;nan;99624.25;4994847;28;19965;-76
2022/05/15 01:41:58;;;;;;;;;;;;;;;13.22;nan;99620.03;4998225;28;20075;-75
2022/05/15 01:44:24;;;;;;;;;;;;;;;13.18;nan;99617.78;4994657;28;20063;-75
2022/05/15 01:46:49;;;;;;;;;;;;;;;13.18;nan;99623.88;5002968;28;20578;-75
2022/05/15 01:49:17;;;;;;;;;;;;;;;13.16;nan;99625.78;4993238;28;20018;-75
2022/05/15 01:51:42;;;;;;;;;;;;;;;13.13;nan;99620.75;5011544;28;20212;-75
2022/05/15 01:54:09;;;;;;;;;;;;;;;13.06;nan;99628.25;5010210;28;20031;-75
2022/05/15 01:56:36;;;;;;;;;;;;;;;12.98;nan;99627.13;4994129;28;20008;-75
2022/05/15 01:59:02;;;;;;;;;;;;;;;12.93;nan;99639.81;5008894;28;20002;-75
2022/05/15 02:01:27;;;;;;;;;;;;;;;12.94;nan;99636.22;4993820;28;20269;-75
2022/05/15 02:03:53;;;;;;;;;;;;;;;12.92;nan;99638.97;5008416;28;20469;-75
2022/05/15 02:06:18;;;;;;;;;;;;;;;12.87;nan;99643.72;4991911;28;20023;-75
2022/05/15 02:08:44;;;;;;;;;;;;;;;12.81;nan;99644.19;4993003;28;20020;-75
2022/05/15 02:11:10;;;;;;;;;;;;;;;12.76;nan;99639.22;5013829;28;19975;-75
2022/05/15 02:13:35;;;;;;;;;;;;;;;12.75;nan;99636.72;5007647;28;20027;-75
2022/05/15 02:16:01;;;;;;;;;;;;;;;12.75;nan;99632.28;4994625;28;20010;-75
2022/05/15 02:18:27;;;;;;;;;;;;;;;12.70;nan;99634.41;4989336;28;20210;-75
2022/05/15 02:20:53;;;;;;;;;;;;;;;12.62;nan;99634.97;4990704;28;19964;-74
2022/05/15 02:23:19;;;;;;;;;;;;;;;12.61;nan;99635.94;4995395;28;19980;-75
2022/05/15 02:25:44;;;;;;;;;;;;;;;12.62;nan;99639.41;5011947;28;19992;-75
2022/05/15 02:28:10;;;;;;;;;;;;;;;12.61;nan;99635.94;4995901;28;19976;-75
2022/05/15 02:30:35;;;;;;;;;;;;;;;12.61;nan;99641.19;4994926;28;19965;-75
2022/05/15 02:33:01;;;;;;;;;;;;;;;12.60;nan;99644.75;4989690;28;20334;-74
2022/05/15 02:35:27;;;;;;;;;;;;;;;12.60;nan;99644.75;4993699;28;19983;-74
2022/05/15 02:37:52;;;;;;;;;;;;;;;12.62;nan;99642.88;4990849;28;19984;-74
2022/05/15 02:40:19;;;;;;;;;;;;;;;12.69;nan;99642.41;4995135;28;20031;-74
2022/05/15 02:42:44;;;;;;;;;;;;;;;12.66;nan;99653.19;4991668;28;20011;-74
2022/05/15 02:45:10;;;;;;;;;;;;;;;12.52;nan;99639.19;5008235;28;19964;-74
2022/05/15 02:47:36;;;;;;;;;;;;;;;12.41;nan;99647.03;4990795;28;20031;-74
2022/05/15 02:52:47;;;;;;;;;;;;;;;12.27;nan;99648.00;4992007;28;19960;-74
2022/05/15 02:55:13;;;;;;;;;;;;;;;12.21;nan;99643.16;4985723;28;20063;-74
2022/05/15 02:57:40;;;;;;;;;;;;;;;12.22;nan;99650.09;5012920;28;20183;-74
2022/05/15 03:00:08;;;;;;;;;;;;;;;12.20;nan;99644.09;5000962;28;20095;-74
2022/05/15 03:02:36;;;;;;;;;;;;;;;12.13;nan;99648.13;5007171;28;20083;-74
2022/05/15 03:05:02;;;;;;;;;;;;;;;12.07;nan;99649.41;4997399;28;19997;-74
2022/05/15 03:07:28;;;;;;;;;;;;;;;11.99;nan;99651.72;4997733;28;19964;-74
2022/05/15 03:09:53;;;;;;;;;;;;;;;11.94;nan;99652.03;5000396;28;19970;-74
2022/05/15 03:12:19;;;;;;;;;;;;;;;11.89;nan;99654.13;4999128;28;19968;-74
2022/05/15 03:14:44;;;;;;;;;;;;;;;11.89;nan;99655.91;5012272;28;19995;-74
2022/05/15 03:17:10;;;;;;;;;;;;;;;11.89;nan;99658.56;4999630;28;19968;-74
2022/05/15 03:19:35;;;;;;;;;;;;;;;11.88;nan;99656.84;4997873;28;19975;-74
2022/05/15 03:22:00;;;;;;;;;;;;;;;11.84;nan;99660.63;4999572;28;20074;-74
2022/05/15 03:24:25;;;;;;;;;;;;;;;11.78;nan;99650.53;4998709;28;19991;-74
2022/05/15 03:26:51;;;;;;;;;;;;;;;11.77;nan;99657.53;4990179;28;20389;-74
2022/05/15 03:29:18;;;;;;;;;;;;;;;11.78;nan;99661.88;4998178;28;19960;-74
2022/05/15 03:31:43;;;;;;;;;;;;;;;11.74;nan;99658.59;4993248;28;19964;-74
2022/05/15 03:34:10;;;;;;;;;;;;;;;11.78;nan;99651.34;4996722;28;19987;-74
2022/05/15 03:36:36;;;;;;;;;;;;;;;11.78;nan;99650.53;4997061;28;19975;-74
2022/05/15 03:39:02;;;;;;;;;;;;;;;11.79;nan;99652.19;4995400;28;20419;-74
2022/05/15 03:41:28;;;;;;;;;;;;;;;11.79;nan;99654.81;4995957;28;20448;-74
2022/05/15 03:43:53;;;;;;;;;;;;;;;11.80;nan;99648.59;5013853;28;19981;-74
2022/05/15 03:46:19;;;;;;;;;;;;;;;11.81;nan;99647.66;4997384;28;19975;-74
2022/05/15 03:48:44;;;;;;;;;;;;;;;11.82;nan;99654.63;4999180;28;20024;-74
2022/05/15 03:51:10;;;;;;;;;;;;;;;11.83;nan;99638.72;4995878;28;19977;-74
2022/05/15 03:53:37;;;;;;;;;;;;;;;11.86;nan;99648.25;5013719;28;19984;-74
2022/05/15 03:56:04;;;;;;;;;;;;;;;11.86;nan;99654.34;4994537;28;19964;-74
2022/05/15 03:58:30;;;;;;;;;;;;;;;11.84;nan;99653.56;5010805;28;20501;-74
2022/05/15 04:00:56;;;;;;;;;;;;;;;11.84;nan;99656.19;4997424;28;19976;-74
2022/05/15 04:03:21;;;;;;;;;;;;;;;11.87;nan;99656.00;5013982;28;20134;-74
2022/05/15 04:05:47;;;;;;;;;;;;;;;11.89;nan;99650.66;5009722;28;19972;-74
2022/05/15 04:08:12;;;;;;;;;;;;;;;11.84;nan;99643.03;5015423;28;20033;-74
2022/05/15 04:10:38;;;;;;;;;;;;;;;11.83;nan;99649.25;4997576;28;20024;-74
2022/05/15 04:13:03;;;;;;;;;;;;;;;11.85;nan;99644.72;5010111;28;20100;-73
2022/05/15 04:15:29;;;;;;;;;;;;;;;11.86;nan;99630.66;4995566;28;19968;-73
2022/05/15 04:17:54;;;;;;;;;;;;;;;11.89;nan;99635.69;5014474;28;20444;-73
2022/05/15 04:20:26;;;;;;;;;;;;;;;11.96;nan;99644.00;4999379;28;19968;-73
2022/05/15 04:22:51;;;;;;;;;;;;;;;11.98;nan;99644.75;5015640;28;19992;-73
2022/05/15 04:25:17;;;;;;;;;;;;;;;12.01;nan;99644.53;4995856;28;20042;-73
2022/05/15 04:27:43;;;;;;;;;;;;;;;12.07;nan;99643.25;5001651;28;19999;-73
2022/05/15 04:30:10;;;;;;;;;;;;;;;12.14;nan;99644.53;4992134;28;20426;-73
2022/05/15 04:32:35;;;;;;;;;;;;;;;12.20;nan;99640.63;4999809;28;20015;-73
2022/05/15 04:35:01;;;;;;;;;;;;;;;12.24;nan;99642.94;4995508;28;19965;-73
2022/05/15 04:37:26;;;;;;;;;;;;;;;12.30;nan;99646.94;4995986;28;20599;-74
2022/05/15 04:39:51;;;;;;;;;;;;;;;12.36;nan;99651.78;4999504;28;20018;-74
2022/05/15 04:42:17;;;;;;;;;;;;;;;12.31;nan;99657.38;4997703;28;19972;-74
2022/05/15 04:44:42;;;;;;;;;;;;;;;12.24;nan;99653.47;4992460;28;19984;-74
2022/05/15 04:47:07;;;;;;;;;;;;;;;12.19;nan;99658.22;4997718;28;20478;-74
2022/05/15 04:49:33;;;;;;;;;;;;;;;12.20;nan;99654.63;4997284;28;19994;-73
2022/05/15 04:51:58;;;;;;;;;;;;;;;12.38;nan;99648.09;4996542;28;19972;-74
2022/05/15 04:54:23;;;;;;;;;;;;;;;12.70;nan;99658.13;4988544;28;20191;-74
2022/05/15 04:56:49;;;;;;;;;;;;;;;13.00;nan;99651.59;4990777;28;19975;-74
2022/05/15 04:59:14;;;;;;;;;;;;;;;13.28;nan;99647.78;4998837;28;20011;-75
2022/05/15 05:01:41;;;;;;;;;;;;;;;13.61;nan;99651.50;4999190;28;20405;-76
2022/05/15 05:04:08;;;;;;;;;;;;;;;13.98;nan;99643.41;5007349;23;19992;-93
2022/05/15 05:06:34;;;;;;;;;;;;;;;14.39;nan;99638.41;5012637;28;19975;-92
2022/05/15 05:09:00;;;;;;;;;;;;;;;14.69;nan;99638.72;5015270;28;19971;-92
2022/05/15 05:11:34;;;;;;;;;;;;;;;15.00;nan;99647.69;5017992;28;19968;-91
2022/05/15 05:14:00;;;;;;;;;;;;;;;15.36;nan;99642.97;5011607;28;19975;-92
2022/05/15 05:16:33;;;;;;;;;;;;;;;15.69;nan;99642.00;5013022;28;20356;-91
2022/05/15 05:18:58;;;;;;;;;;;;;;;15.98;nan;99647.47;5011485;28;19972;-91
2022/05/15 05:21:24;;;;;;;;;;;;;;;16.17;nan;99653.81;5013962;28;19979;-91
2022/05/15 05:23:50;;;;;;;;;;;;;;;16.31;nan;99653.47;5015466;28;19972;-93
2022/05/15 05:26:16;;;;;;;;;;;;;;;16.50;nan;99648.25;5021672;28;19975;-92
2022/05/15 05:28:41;;;;;;;;;;;;;;;16.90;nan;99638.59;5030327;28;19976;-92
2022/05/15 05:31:11;;;;;;;;;;;;;;;17.22;nan;99646.31;5028705;28;20035;-91
2022/05/15 05:33:43;;;;;;;;;;;;;;;17.51;nan;99641.00;5032166;28;19981;-93
2022/05/15 05:36:12;;;;;;;;;;;;;;;17.86;nan;99637.75;5031840;28;19971;-92
2022/05/15 05:38:45;;;;;;;;;;;;;;;18.22;nan;99637.91;5029691;28;19980;-92
2022/05/15 05:41:19;;;;;;;;;;;;;;;18.65;nan;99635.63;5030401;28;19979;-92
2022/05/15 05:44:04;;;;;;;;;;;;;;;19.00;nan;99622.38;5030982;28;20011;-92
2022/05/15 05:46:29;;;;;;;;;;;;;;;19.33;nan;99635.19;5027193;28;20316;-91
2022/05/15 05:48:58;;;;;;;;;;;;;;;19.66;nan;99631.00;5013327;28;20011;-92
2022/05/15 05:51:35;;;;;;;;;;;;;;;19.97;nan;99633.19;5019604;28;19975;-92
2022/05/15 05:54:01;;;;;;;;;;;;;;;20.26;nan;99631.03;5030437;28;20449;-92
2022/05/15 05:56:27;;;;;;;;;;;;;;;20.41;nan;99631.25;5029283;28;19964;-92
2022/05/15 05:58:55;;;;;;;;;;;;;;;20.58;nan;99632.19;5029746;28;20300;-92
2022/05/15 06:01:24;;;;;;;;;;;;;;;20.84;nan;99632.09;5029016;28;19931;-94
2022/05/15 06:06:33;;;;;;;;;;;;;;;21.36;nan;99631.84;5015881;28;20366;-93
2022/05/15 06:08:59;;;;;;;;;;;;;;;21.48;nan;99628.88;5006107;28;20027;-93
2022/05/15 06:11:27;;;;;;;;;;;;;;;21.64;nan;99626.19;5004996;28;19968;-93
2022/05/15 06:13:58;;;;;;;;;;;;;;;22.06;nan;99622.41;5009510;28;19933;-93
2022/05/15 06:16:24;;;;;;;;;;;;;;;22.34;nan;99622.03;5002669;28;20386;-92
2022/05/15 06:18:50;;;;;;;;;;;;;;;22.62;nan;99614.38;5004056;28;19985;-94
2022/05/15 06:21:16;;;;;;;;;;;;;;;22.95;nan;99617.69;4999736;28;20487;-94
2022/05/15 06:23:50;;;;;;;;;;;;;;;23.30;nan;99620.81;5005497;28;20007;-93
2022/05/15 06:26:16;;;;;;;;;;;;;;;23.66;nan;99614.84;5012170;28;19937;-92
2022/05/15 06:28:45;;;;;;;;;;;;;;;23.90;nan;99617.31;5001848;28;19931;-94
2022/05/15 06:31:10;;;;;;;;;;;;;;;23.85;nan;99615.19;4999136;28;20033;-93
2022/05/15 06:33:46;;;;;;;;;;;;;;;23.66;nan;99621.03;5017703;28;19988;-92
2022/05/15 06:36:15;;;;;;;;;;;;;;;23.58;nan;99626.47;5004531;28;20009;-94
2022/05/15 06:38:42;;;;;;;;;;;;;;;23.56;nan;99613.22;5021762;28;20001;-94
2022/05/15 06:41:12;;;;;;;;;;;;;;;23.36;nan;99610.25;5007045;28;20869;-94
2022/05/15 06:43:46;;;;;;;;;;;;;;;23.08;nan;99609.09;5007615;28;20408;-93
2022/05/15 06:46:14;;;;;;;;;;;;;;;23.30;nan;99605.56;5016861;28;19942;-93
2022/05/15 06:48:40;;;;;;;;;;;;;;;23.66;nan;99598.75;5004261;28;20440;-93
2022/05/15 06:51:13;;;;;;;;;;;;;;;23.95;nan;99596.13;5001370;28;19946;-93
2022/05/15 06:53:46;;;;;;;;;;;;;;;24.20;nan;99606.59;5003294;28;19973;-92
2022/05/15 06:59:03;;;;;;;;;;;;;;;24.71;nan;99601.28;4998077;28;20021;-90
2022/05/15 07:01:30;;;;;;;;;;;;;;;24.91;nan;99605.00;5003668;28;19962;-91
2022/05/15 07:03:59;;;;;;;;;;;;;;;24.97;nan;99602.56;5002726;28;19974;-93
2022/05/15 07:06:31;;;;;;;;;;;;;;;25.11;nan;99599.84;4994006;28;19941;-91
2022/05/15 07:08:57;;;;;;;;;;;;;;;25.33;nan;99592.63;5004681;28;19964;-91
2022/05/15 07:11:33;;;;;;;;;;;;;;;25.50;nan;99587.78;5008957;28;19930;-92
2022/05/15 07:14:01;;;;;;;;;;;;;;;25.51;nan;99589.44;5004051;28;19939;-91
2022/05/15 07:16:27;;;;;;;;;;;;;;;25.69;nan;99585.44;4997729;28;19947;-90
2022/05/15 07:18:52;;;;;;;;;;;;;;;25.69;nan;99586.25;4998896;28;19955;-88
2022/05/15 07:21:18;;;;;;;;;;;;;;;25.97;nan;99590.81;5011247;28;19946;-91
2022/05/15 07:23:44;;;;;;;;;;;;;;;26.14;nan;99589.47;5013496;28;20238;-89
2022/05/15 07:26:13;;;;;;;;;;;;;;;26.26;nan;99587.03;5013188;28;20254;-91
2022/05/15 07:31:42;;;;;;;;;;;;;;;26.44;nan;99584.66;5000937;28;19933;-94
2022/05/15 07:34:10;;;;;;;;;;;;;;;26.04;nan;99581.75;5004837;28;19963;-92
2022/05/15 07:36:58;;;;;;;;;;;;;;;25.95;nan;99580.25;5005472;28;19935;-94
2022/05/15 07:39:36;;;;;;;;;;;;;;;26.07;nan;99574.31;5003578;28;20492;-92
2022/05/15 07:42:16;;;;;;;;;;;;;;;26.07;nan;99574.31;5020857;28;19955;-96
2022/05/15 07:49:20;;;;;;;;;;;;;;;;;;;;;
2022/05/15 07:52:20;;;;;;;;;;;;;;;26.27;nan;99578.78;5007760;28;20006;-93
2022/05/15 07:54:55;;;;;;;;;;;;;;;26.24;nan;99573.75;5005690;28;19943;-93
2022/05/15 07:58:03;;;;;;;;;;;;;;;26.10;nan;99565.84;5009814;28;19970;-93
2022/05/15 08:00:29;;;;;;;;;;;;;;;26.24;nan;99568.38;5007454;28;19951;-93
2022/05/15 08:03:27;;;;;;;;;;;;;;;26.33;nan;99561.00;5003117;28;19966;-95
2022/05/15 08:09:11;;;;;;;;;;;;;;;26.29;nan;99566.97;4974858;28;19958;-94
2022/05/15 08:16:11;;;;;;;;;;;;;;;26.18;nan;99566.50;5008010;28;20342;-94
2022/05/15 08:24:58;;;;;;;;;;;;;;;25.68;nan;99557.72;4983134;28;19964;-92
2022/05/15 08:31:02;;;;;;;;;;;;;;;25.64;nan;99560.97;5008971;28;19982;-94
2022/05/15 08:34:29;;;;;;;;;;;;;;;;;;;;;
2022/05/15 08:37:15;;;;;;;;;;;;;;;25.01;nan;99567.06;4970160;28;19981;-93
2022/05/15 08:39:48;;;;;;;;;;;;;;;24.90;nan;99563.03;4967943;28;20063;-93
2022/05/15 08:42:22;;;;;;;;;;;;;;;24.77;nan;99562.91;4965891;28;19972;-93
2022/05/15 08:44:50;;;;;;;;;;;;;;;24.69;nan;99549.59;4965295;28;19969;-93
2022/05/15 08:47:42;;;;;;;;;;;;;;;24.54;nan;99556.84;4968556;28;20003;-92
2022/05/15 08:50:19;;;;;;;;;;;;;;;24.64;nan;99554.69;4968830;28;19984;-95
2022/05/15 08:53:05;;;;;;;;;;;;;;;24.78;nan;99555.66;4963052;28;19973;-94
2022/05/15 08:55:47;;;;;;;;;;;;;;;24.85;nan;99553.88;4958328;28;19964;-93
2022/05/15 08:58:24;;;;;;;;;;;;;;;25.01;nan;99555.50;4958565;28;19989;-92
2022/05/15 09:00:56;;;;;;;;;;;;;;;24.81;nan;99548.03;4960875;28;19976;-94
2022/05/15 09:03:42;;;;;;;;;;;;;;;24.88;nan;99548.94;4961049;28;19985;-93
2022/05/15 09:06:15;;;;;;;;;;;;;;;24.99;nan;99552.16;4994816;28;20014;-91
2022/05/15 09:08:47;;;;;;;;;;;;;;;25.12;nan;99558.47;5006799;28;19973;-94
2022/05/15 09:11:14;;;;;;;;;;;;;;;24.91;nan;99556.63;5015740;23;19992;-75
2022/05/15 09:13:42;;;;;;;;;;;;;;;24.91;nan;99551.25;4996379;28;19990;-75
2022/05/15 09:16:33;;;;;;;;;;;;;;;25.02;nan;99549.91;4994230;28;19968;-75
2022/05/15 09:19:03;;;;;;;;;;;;;;;25.06;nan;99551.19;4990065;28;19988;-73
2022/05/15 09:21:28;;;;;;;;;;;;;;;24.86;nan;99550.16;4992624;28;20421;-75
2022/05/15 09:23:55;;;;;;;;;;;;;;;25.03;nan;99542.66;4997907;28;19991;-73
2022/05/15 09:26:28;;;;;;;;;;;;;;;25.31;nan;99545.44;4984765;28;19971;-74
2022/05/15 09:28:54;;;;;;;;;;;;;;;25.52;nan;99545.41;4987701;28;19969;-74
2022/05/15 09:31:28;;;;;;;;;;;;;;;25.73;nan;99544.47;4993581;28;20468;-75
2022/05/15 09:33:59;;;;;;;;;;;;;;;25.90;nan;99538.84;4986667;28;19985;-74
2022/05/15 09:36:27;;;;;;;;;;;;;;;26.00;nan;99547.34;4992527;28;19960;-75
2022/05/15 09:39:11;;;;;;;;;;;;;;;26.13;nan;99539.34;4991945;28;19994;-74
2022/05/15 09:44:25;;;;;;;;;;;;;;;25.99;nan;99551.09;4994967;28;20372;-74
2022/05/15 09:46:58;;;;;;;;;;;;;;;26.07;nan;99539.31;4988229;28;20433;-74
2022/05/15 09:49:24;;;;;;;;;;;;;;;26.14;nan;99540.16;4990777;28;20161;-74
2022/05/15 09:51:54;;;;;;;;;;;;;;;26.12;nan;99535.00;4984897;28;20429;-74
2022/05/15 09:54:30;;;;;;;;;;;;;;;26.09;nan;99539.97;4994425;28;20288;-74
2022/05/15 09:57:09;;;;;;;;;;;;;;;26.23;nan;99531.72;4990029;28;19960;-74
2022/05/15 09:59:34;;;;;;;;;;;;;;;26.46;nan;99527.84;4987204;28;19988;-74
2022/05/15 10:02:00;;;;;;;;;;;;;;;26.47;nan;99522.28;4989386;28;19969;-74
2022/05/15 10:04:28;;;;;;;;;;;;;;;26.54;nan;99525.00;4995642;28;20070;-74
2022/05/15 10:06:55;;;;;;;;;;;;;;;26.67;nan;99514.28;4985415;28;19971;-75
2022/05/15 10:09:31;;;;;;;;;;;;;;;26.71;nan;99509.31;4991817;28;19960;-73
2022/05/15 10:12:06;;;;;;;;;;;;;;;26.82;nan;99519.50;4990424;28;19995;-73
2022/05/15 10:14:52;;;;;;;;;;;;;;;26.87;nan;99514.31;4971822;28;20082;-74
2022/05/15 10:17:27;;;;;;;;;;;;;;;26.93;nan;99513.47;4986994;28;20349;-76
2022/05/15 10:20:04;;;;;;;;;;;;;;;26.86;nan;99509.94;4995153;28;19968;-74
2022/05/15 10:22:33;;;;;;;;;;;;;;;26.65;nan;99502.03;4988692;28;20432;-75
2022/05/15 10:25:19;;;;;;;;;;;;;;;26.71;nan;99506.63;4989970;28;20017;-75
2022/05/15 10:27:49;;;;;;;;;;;;;;;26.86;nan;99506.41;4990616;28;20034;-75
2022/05/15 10:30:19;;;;;;;;;;;;;;;26.91;nan;99501.25;4991522;28;20409;-75
2022/05/15 10:32:49;;;;;;;;;;;;;;;26.85;nan;99496.69;4989125;28;19972;-75
2022/05/15 10:35:15;;;;;;;;;;;;;;;26.70;nan;99503.06;4994741;28;19969;-75
2022/05/15 10:37:49;;;;;;;;;;;;;;;26.74;nan;99492.75;4998224;28;20050;-75
2022/05/15 10:40:27;;;;;;;;;;;;;;;27.06;nan;99490.28;4988634;28;20310;-79
2022/05/15 10:42:58;;;;;;;;;;;;;;;27.27;nan;99478.44;4992397;28;19968;-75
2022/05/15 10:45:25;;;;;;;;;;;;;;;27.46;nan;99474.06;4987482;28;19961;-75
2022/05/15 10:47:53;;;;;;;;;;;;;;;27.57;nan;99471.56;4991956;28;19976;-75
2022/05/15 10:50:31;;;;;;;;;;;;;;;27.65;nan;99477.75;4993808;28;19965;-75
2022/05/15 10:57:21;;;;;;;;;;;;;;;27.76;nan;99471.69;4992092;28;19967;-76
2022/05/15 10:58:49;;;;;;;;;;;;;;;27.59;nan;99464.06;4992837;28;19988;-78
2022/05/15 11:01:27;;;;;;;;;;;;;;;27.66;nan;99464.06;4995232;28;20018;-78
2022/05/15 11:04:12;;;;;;;;;;;;;;;27.74;nan;99457.59;4999957;23;20067;-71
2022/05/15 11:06:37;;;;;;;;;;;;;;;27.73;nan;99454.09;4991102;28;19969;-73
2022/05/15 11:09:08;;;;;;;;;;;;;;;27.68;nan;99455.72;4997759;28;19960;-73
2022/05/15 11:11:40;;;;;;;;;;;;;;;27.60;nan;99456.81;5002210;28;19996;-72
2022/05/15 11:14:05;;;;;;;;;;;;;;;27.70;nan;99448.25;4993505;28;19981;-73
2022/05/15 11:16:52;;;;;;;;;;;;;;;27.67;nan;99448.69;4988903;28;19999;-73
2022/05/15 11:19:25;;;;;;;;;;;;;;;27.64;nan;99441.84;4988151;28;20079;-73
2022/05/15 11:21:50;;;;;;;;;;;;;;;27.66;nan;99430.84;4992376;28;19995;-72
2022/05/15 11:24:18;;;;;;;;;;;;;;;27.62;nan;99438.53;4993831;28;19980;-73
2022/05/15 11:26:50;;;;;;;;;;;;;;;27.61;nan;99433.38;5009475;28;19973;-72
2022/05/15 11:29:18;;;;;;;;;;;;;;;27.63;nan;99431.28;4993519;28;19960;-73
2022/05/15 11:31:56;;;;;;;;;;;;;;;27.49;nan;99431.31;4991928;28;20533;-72
2022/05/15 11:34:41;;;;;;;;;;;;;;;27.39;nan;99425.53;4990420;28;20325;-72
2022/05/15 11:37:40;;;;;;;;;;;;;;;27.46;nan;99426.31;4995130;28;19964;-72
2022/05/15 11:40:09;;;;;;;;;;;;;;;27.45;nan;99416.59;4982119;28;20056;-72
2022/05/15 11:42:35;;;;;;;;;;;;;;;27.28;nan;99420.78;4996754;28;20383;-72
2022/05/15 11:45:20;;;;;;;;;;;;;;;27.32;nan;99417.44;4992946;28;20457;-72
2022/05/15 11:47:57;;;;;;;;;;;;;;;27.32;nan;99413.94;4993214;28;19971;-72
2022/05/15 11:50:37;;;;;;;;;;;;;;;27.31;nan;99412.28;4989575;28;20429;-72
2022/05/15 11:53:07;;;;;;;;;;;;;;;27.22;nan;99416.22;4989588;28;20436;-72
2022/05/15 11:55:35;;;;;;;;;;;;;;;27.07;nan;99406.47;4995976;28;19965;-72
2022/05/15 11:58:26;;;;;;;;;;;;;;;27.06;nan;99402.13;4988199;28;19984;-72
2022/05/15 12:01:03;;;;;;;;;;;;;;;27.25;nan;99405.88;4990059;28;20011;-72
2022/05/15 12:03:38;;;;;;;;;;;;;;;27.30;nan;99403.38;5005271;28;19984;-72
2022/05/15 12:06:08;;;;;;;;;;;;;;;27.23;nan;99404.41;4994190;28;20512;-72
2022/05/15 12:08:34;;;;;;;;;;;;;;;27.19;nan;99395.91;4993005;28;19976;-71
2022/05/15 12:11:22;;;;;;;;;;;;;;;27.27;nan;99397.53;4989376;28;19983;-71
2022/05/15 12:13:48;;;;;;;;;;;;;;;27.33;nan;99388.63;4993231;28;20024;-71
2022/05/15 12:16:15;;;;;;;;;;;;;;;27.43;nan;99382.78;4991767;28;20268;-71
2022/05/15 12:18:40;;;;;;;;;;;;;;;27.48;nan;99381.09;5004470;28;19995;-71
2022/05/15 12:21:07;;;;;;;;;;;;;;;27.51;nan;99382.53;5002414;28;19960;-71
2022/05/15 12:23:35;;;;;;;;;;;;;;;27.56;nan;99383.56;5006611;28;19984;-71
2022/05/15 12:26:05;;;;;;;;;;;;;;;27.59;nan;99369.63;4988622;28;19965;-71
2022/05/15 12:28:52;;;;;;;;;;;;;;;27.59;nan;99364.22;4989400;28;19979;-71
2022/05/15 12:31:33;;;;;;;;;;;;;;;27.66;nan;99368.78;4997735;28;19968;-71
2022/05/15 12:34:13;;;;;;;;;;;;;;;27.63;nan;99366.53;4993378;28;20026;-71
2022/05/15 12:36:40;;;;;;;;;;;;;;;27.63;nan;99361.13;4991441;28;19968;-71
2022/05/15 12:39:06;;;;;;;;;;;;;;;27.68;nan;99358.59;4988187;28;19992;-72
2022/05/15 12:41:38;;;;;;;;;;;;;;;27.67;nan;99351.56;4989262;28;19965;-71
2022/05/15 12:44:06;;;;;;;;;;;;;;;27.73;nan;99356.06;4991167;28;19985;-71
2022/05/15 12:46:39;;;;;;;;;;;;;;;27.80;nan;99341.53;4990212;28;20448;-72
2022/05/15 12:49:06;;;;;;;;;;;;;;;27.73;nan;99340.75;4986842;28;19961;-72
2022/05/15 12:51:33;;;;;;;;;;;;;;;27.64;nan;99341.19;4986604;28;20127;-72
2022/05/15 12:53:59;;;;;;;;;;;;;;;27.66;nan;99345.31;4986840;28;20031;-72
2022/05/15 12:56:26;;;;;;;;;;;;;;;27.69;nan;99338.69;4985990;28;19964;-72
2022/05/15 12:59:07;;;;;;;;;;;;;;;27.69;nan;99328.69;4988928;28;20652;-72
2022/05/15 13:01:33;;;;;;;;;;;;;;;27.73;nan;99337.19;4988682;28;19974;-71
2022/05/15 13:04:01;;;;;;;;;;;;;;;27.80;nan;99328.03;4982245;28;20951;-72
2022/05/15 13:06:29;;;;;;;;;;;;;;;27.91;nan;99331.09;4987144;28;19968;-73
2022/05/15 13:08:57;;;;;;;;;;;;;;;27.97;nan;99336.44;4986491;28;20577;-73
2022/05/15 13:11:25;;;;;;;;;;;;;;;28.06;nan;99331.63;4987491;28;19979;-73
2022/05/15 13:13:52;;;;;;;;;;;;;;;28.11;nan;99329.13;4983526;28;19980;-73
2022/05/15 13:16:19;;;;;;;;;;;;;;;28.17;nan;99330.94;4986172;28;19963;-73
2022/05/15 13:18:45;;;;;;;;;;;;;;;28.23;nan;99326.53;4988297;28;19985;-73
2022/05/15 13:21:11;;;;;;;;;;;;;;;28.30;nan;99324.63;4985851;28;20011;-72
2022/05/15 13:23:46;;;;;;;;;;;;;;;28.30;nan;99318.34;4987441;28;20078;-73
2022/05/15 13:26:18;;;;;;;;;;;;;;;28.34;nan;99315.00;4985932;28;19999;-73
2022/05/15 13:28:44;;;;;;;;;;;;;;;28.39;nan;99312.47;4985791;28;20276;-73
2022/05/15 13:31:12;;;;;;;;;;;;;;;28.41;nan;99310.38;4987425;28;20059;-73
2022/05/15 13:33:38;;;;;;;;;;;;;;;28.43;nan;99311.00;4986509;28;19991;-73
2022/05/15 13:36:04;;;;;;;;;;;;;;;28.45;nan;99300.81;4995670;28;19961;-73
2022/05/15 13:44:13;;;;;;;;;;;;;;;28.52;nan;99298.06;4990250;28;20123;-72
2022/05/15 13:46:57;;;;;;;;;;;;;;;28.53;nan;99298.88;4987765;28;20692;-73
2022/05/15 13:49:24;;;;;;;;;;;;;;;28.51;nan;99295.56;4985222;28;20050;-73
2022/05/15 13:51:50;;;;;;;;;;;;;;;28.48;nan;99296.00;4990798;28;19968;-73
2022/05/15 13:54:18;;;;;;;;;;;;;;;28.50;nan;99294.75;4985096;28;20025;-73
2022/05/15 13:56:49;;;;;;;;;;;;;;;28.52;nan;99289.13;4984981;28;19964;-73
2022/05/15 13:59:30;;;;;;;;;;;;;;;28.50;nan;99286.63;4990702;28;19988;-73
2022/05/15 14:02:12;;;;;;;;;;;;;;;28.39;nan;99279.22;4998237;28;20026;-73
2022/05/15 14:04:39;;;;;;;;;;;;;;;28.39;nan;99273.84;4984040;28;19988;-73
2022/05/15 14:07:04;;;;;;;;;;;;;;;28.50;nan;99272.31;4987895;28;19975;-73
2022/05/15 14:09:43;;;;;;;;;;;;;;;28.51;nan;99271.25;4985178;28;19964;-73